createdAt,value
2023-04-30T00:00:28.266Z,51.10
2023-04-30T00:02:55.515Z,51.26
2023-04-30T00:05:22.074Z,51.36
2023-04-30T00:07:48.775Z,51.49
2023-04-30T00:10:17.802Z,52.06
2023-04-30T00:12:44.417Z,52.20
2023-04-30T00:15:11.727Z,52.25
2023-04-30T00:17:38.369Z,52.48
2023-04-30T00:20:05.375Z,52.96
2023-04-30T00:22:33.392Z,53.80
2023-04-30T00:24:59.990Z,53.09
2023-04-30T00:27:29.070Z,53.36
2023-04-30T00:29:57.996Z,53.40
2023-04-30T00:32:24.681Z,53.59
2023-04-30T00:34:51.436Z,53.43
2023-04-30T00:37:18.008Z,53.99
2023-04-30T00:39:44.915Z,54.33
2023-04-30T00:42:11.455Z,54.70
2023-04-30T00:44:38.048Z,54.50
2023-04-30T00:47:04.856Z,54.41
2023-04-30T00:49:33.789Z,54.38
2023-04-30T00:52:03.376Z,54.38
2023-04-30T00:54:29.989Z,54.29
2023-04-30T00:56:56.694Z,54.74
2023-04-30T00:59:25.810Z,54.61
2023-04-30T01:01:54.982Z,55.52
2023-04-30T01:04:21.659Z,55.74
2023-04-30T01:06:53.247Z,55.94
2023-04-30T01:09:22.277Z,56.09
2023-04-30T01:12:09.968Z,56.13
2023-04-30T01:14:43.888Z,56.13
2023-04-30T01:17:17.596Z,56.21
2023-04-30T01:19:44.515Z,55.98
2023-04-30T01:22:21.650Z,56.41
2023-04-30T01:25:09.308Z,56.20
2023-04-30T01:27:50.740Z,56.66
2023-04-30T01:30:20.271Z,56.55
2023-04-30T01:32:46.923Z,56.36
2023-04-30T01:35:13.707Z,56.60
2023-04-30T01:37:47.462Z,55.95
2023-04-30T01:40:19.584Z,56.08
2023-04-30T01:42:49.322Z,56.60
2023-04-30T01:45:21.584Z,56.49
2023-04-30T01:47:58.288Z,56.61
2023-04-30T01:50:25.003Z,56.06
2023-04-30T01:52:57.574Z,56.08
2023-04-30T01:55:24.209Z,56.12
2023-04-30T01:58:00.597Z,56.24
2023-04-30T02:00:30.916Z,56.62
2023-04-30T02:03:02.961Z,56.35
2023-04-30T02:05:30.121Z,55.85
2023-04-30T02:07:56.740Z,56.01
2023-04-30T02:10:24.343Z,55.78
2023-04-30T02:12:54.232Z,55.84
2023-04-30T02:15:20.996Z,55.28
2023-04-30T02:17:49.956Z,55.52
2023-04-30T02:20:16.775Z,55.84
2023-04-30T02:22:43.789Z,56.34
2023-04-30T02:25:12.538Z,56.11
2023-04-30T02:27:39.296Z,56.25
2023-04-30T02:30:06.492Z,56.12
2023-04-30T02:32:33.319Z,56.70
2023-04-30T02:35:00.208Z,56.96
2023-04-30T02:37:26.877Z,56.67
2023-04-30T02:39:53.553Z,57.10
2023-04-30T02:42:23.021Z,57.12
2023-04-30T02:44:49.670Z,58.10
2023-04-30T02:47:16.317Z,57.84
2023-04-30T02:49:45.486Z,57.76
2023-04-30T02:52:12.240Z,57.45
2023-04-30T02:54:38.862Z,57.28
2023-04-30T02:57:08.574Z,57.30
2023-04-30T02:59:35.144Z,57.22
2023-04-30T03:02:04.119Z,58.24
2023-04-30T03:04:30.736Z,57.73
2023-04-30T03:06:57.343Z,57.71
2023-04-30T03:09:23.924Z,58.17
2023-04-30T03:11:50.513Z,57.95
2023-04-30T03:14:19.940Z,57.65
2023-04-30T03:16:49.426Z,57.99
2023-04-30T03:19:16.117Z,57.84
2023-04-30T03:21:42.730Z,57.92
2023-04-30T03:24:09.786Z,57.86
2023-04-30T03:26:36.491Z,57.38
2023-04-30T03:29:03.325Z,57.82
2023-04-30T03:31:29.961Z,57.90
2023-04-30T03:33:56.599Z,57.63
2023-04-30T03:36:28.529Z,57.66
2023-04-30T03:38:55.264Z,57.91
2023-04-30T03:41:24.645Z,58.84
2023-04-30T03:43:51.331Z,59.30
2023-04-30T03:46:18.024Z,59.60
2023-04-30T03:48:48.222Z,61.41
2023-04-30T03:51:17.764Z,61.95
2023-04-30T03:53:46.788Z,62.83
2023-04-30T03:56:15.848Z,63.21
2023-04-30T03:58:42.488Z,64.21
2023-04-30T04:01:11.472Z,64.23
2023-04-30T04:03:38.368Z,63.83
2023-04-30T04:06:08.377Z,64.18
2023-04-30T04:08:35.183Z,64.79
2023-04-30T04:11:02.237Z,65.60
2023-04-30T04:13:31.427Z,65.86
2023-04-30T04:15:58.840Z,66.46
2023-04-30T04:18:25.762Z,66.43
2023-04-30T04:20:52.536Z,66.70
2023-04-30T04:23:20.254Z,67.16
2023-04-30T04:25:49.617Z,66.84
2023-04-30T04:28:17.213Z,66.07
2023-04-30T04:30:44.010Z,66.05
2023-04-30T04:33:11.934Z,67.12
2023-04-30T04:35:38.836Z,67.51
2023-04-30T04:38:05.879Z,67.98
2023-04-30T04:40:35.513Z,68.58
2023-04-30T04:43:02.386Z,69.06
2023-04-30T04:45:29.589Z,69.65
2023-04-30T04:48:01.482Z,70.13
2023-04-30T04:50:33.543Z,70.40
2023-04-30T04:53:00.218Z,69.81
2023-04-30T04:55:29.364Z,70.76
2023-04-30T04:57:58.992Z,70.25
2023-04-30T05:00:34.020Z,70.13
2023-04-30T05:03:01.036Z,70.00
2023-04-30T05:05:27.741Z,69.61
2023-04-30T05:07:56.986Z,70.01
2023-04-30T05:10:23.612Z,71.25
2023-04-30T05:12:51.424Z,71.30
2023-04-30T05:15:20.910Z,71.40
2023-04-30T05:17:47.523Z,71.37
2023-04-30T05:20:14.200Z,71.46
2023-04-30T05:22:40.862Z,71.61
2023-04-30T05:25:07.716Z,71.23
2023-04-30T05:27:34.392Z,71.17
2023-04-30T05:30:03.445Z,70.54
2023-04-30T05:32:30.272Z,70.56
2023-04-30T05:34:59.328Z,71.03
2023-04-30T05:37:25.919Z,70.88
2023-04-30T05:39:54.180Z,70.44
2023-04-30T05:42:21.138Z,69.98
2023-04-30T05:44:51.018Z,69.63
2023-04-30T05:47:17.801Z,69.43
2023-04-30T05:49:44.453Z,69.85
2023-04-30T05:52:15.385Z,69.89
2023-04-30T05:54:42.123Z,70.18
2023-04-30T05:57:11.366Z,70.17
2023-04-30T05:59:37.991Z,70.28
2023-04-30T06:02:04.726Z,70.25
2023-04-30T06:04:33.887Z,70.04
2023-04-30T06:07:00.786Z,69.43
2023-04-30T06:09:27.423Z,68.68
2023-04-30T06:11:55.838Z,68.47
2023-04-30T06:14:25.461Z,67.90
2023-04-30T06:16:54.268Z,67.91
2023-04-30T06:19:23.383Z,68.10
2023-04-30T06:21:55.378Z,67.70
2023-04-30T06:24:22.063Z,67.80
2023-04-30T06:26:48.641Z,67.57
2023-04-30T06:29:15.350Z,67.10
2023-04-30T06:31:42.036Z,66.61
2023-04-30T06:34:08.998Z,66.23
2023-04-30T06:36:38.524Z,66.36
2023-04-30T06:39:05.387Z,66.27
2023-04-30T06:41:34.471Z,66.23
2023-04-30T06:44:06.434Z,66.00
2023-04-30T06:46:34.719Z,65.20
2023-04-30T06:49:01.494Z,64.99
2023-04-30T06:51:28.138Z,65.03
2023-04-30T06:53:54.705Z,64.42
2023-04-30T06:56:25.082Z,63.59
2023-04-30T06:58:51.723Z,63.41
2023-04-30T07:01:18.751Z,63.01
2023-04-30T07:03:51.676Z,61.94
2023-04-30T07:06:18.467Z,61.94
2023-04-30T07:08:49.798Z,62.05
2023-04-30T07:11:16.964Z,62.04
2023-04-30T07:13:46.098Z,60.94
2023-04-30T07:16:12.824Z,61.11
2023-04-30T07:18:42.273Z,61.57
2023-04-30T07:21:11.232Z,61.50
2023-04-30T07:23:37.820Z,61.16
2023-04-30T07:26:06.897Z,60.19
2023-04-30T07:28:33.487Z,59.92
2023-04-30T07:31:00.822Z,60.28
2023-04-30T07:33:27.500Z,60.28
2023-04-30T07:35:56.058Z,60.11
2023-04-30T07:38:22.729Z,59.74
2023-04-30T07:40:49.268Z,59.04
2023-04-30T07:43:15.966Z,58.29
2023-04-30T07:45:45.200Z,58.36
2023-04-30T07:48:11.868Z,58.94
2023-04-30T07:50:39.086Z,58.88
2023-04-30T07:53:09.904Z,58.40
2023-04-30T07:55:36.593Z,57.99
2023-04-30T07:58:03.986Z,58.35
2023-04-30T08:00:33.143Z,58.29
2023-04-30T08:03:02.322Z,57.13
2023-04-30T08:05:29.071Z,57.28
2023-04-30T08:07:55.937Z,56.56
2023-04-30T08:10:27.389Z,57.01
2023-04-30T08:12:56.259Z,57.13
2023-04-30T08:15:23.007Z,56.90
2023-04-30T08:17:52.986Z,56.38
2023-04-30T08:20:23.698Z,56.31
2023-04-30T08:22:51.205Z,56.56
2023-04-30T08:25:17.802Z,55.51
2023-04-30T08:27:44.396Z,55.23
2023-04-30T08:30:13.482Z,54.40
2023-04-30T08:32:42.821Z,53.70
2023-04-30T08:35:11.853Z,52.53
2023-04-30T08:37:41.329Z,51.97
2023-04-30T08:40:09.795Z,50.87
2023-04-30T08:42:37.730Z,51.89
2023-04-30T08:45:07.036Z,50.78
2023-04-30T08:47:33.611Z,51.31
2023-04-30T08:50:00.402Z,47.68
2023-04-30T08:52:29.344Z,47.27
2023-04-30T08:54:56.002Z,47.20
2023-04-30T08:57:25.663Z,46.32
2023-04-30T08:59:52.386Z,46.63
2023-04-30T09:02:22.038Z,46.56
2023-04-30T09:04:49.062Z,46.52
2023-04-30T09:07:18.793Z,45.46
2023-04-30T09:09:47.744Z,46.33
2023-04-30T09:12:19.261Z,45.68
2023-04-30T09:15:13.633Z,45.56
2023-04-30T09:17:42.787Z,46.58
2023-04-30T09:20:10.234Z,43.29
2023-04-30T09:22:39.692Z,44.57
2023-04-30T09:25:09.649Z,43.16
2023-04-30T09:27:44.597Z,42.64
2023-04-30T09:30:15.640Z,41.87
2023-04-30T09:32:54.648Z,42.32
2023-04-30T09:35:29.796Z,41.41
2023-04-30T09:37:56.516Z,41.64
2023-04-30T09:40:33.173Z,41.24
2023-04-30T09:43:02.405Z,40.48
2023-04-30T09:45:47.509Z,40.37
2023-04-30T09:48:18.141Z,39.70
2023-04-30T09:50:52.384Z,38.21
2023-04-30T09:53:21.767Z,39.83
2023-04-30T09:55:49.260Z,38.41
2023-04-30T09:58:19.322Z,37.35
2023-04-30T10:00:46.486Z,38.22
2023-04-30T10:03:13.589Z,37.06
2023-04-30T10:05:47.622Z,36.60
2023-04-30T10:08:35.693Z,37.39
2023-04-30T10:11:06.196Z,38.49
2023-04-30T10:13:41.351Z,39.71
2023-04-30T10:16:21.270Z,39.83
2023-04-30T10:18:49.158Z,39.48
2023-04-30T10:21:16.421Z,39.22
2023-04-30T10:23:43.847Z,39.66
2023-04-30T10:26:12.474Z,37.85
2023-04-30T10:28:40.759Z,38.84
2023-04-30T10:31:10.782Z,36.74
2023-04-30T10:33:58.708Z,37.45
2023-04-30T10:36:42.526Z,38.04
2023-04-30T10:39:12.830Z,38.63
2023-04-30T10:41:39.535Z,37.80
2023-04-30T10:44:07.071Z,38.62
2023-04-30T10:46:39.388Z,39.17
2023-04-30T10:49:08.928Z,39.52
2023-04-30T10:51:45.406Z,40.27
2023-04-30T10:54:12.361Z,39.37
2023-04-30T10:56:41.563Z,37.58
2023-04-30T10:59:12.441Z,37.95
2023-04-30T11:01:54.914Z,36.77
2023-04-30T11:04:21.680Z,35.86
2023-04-30T11:07:10.228Z,35.90
2023-04-30T11:09:37.653Z,36.53
2023-04-30T11:12:05.055Z,35.17
2023-04-30T11:14:35.126Z,33.70
2023-04-30T11:17:05.085Z,33.98
2023-04-30T11:19:31.939Z,34.49
2023-04-30T11:22:04.964Z,35.61
2023-04-30T11:24:50.989Z,34.46
2023-04-30T11:27:24.495Z,32.82
2023-04-30T11:29:54.133Z,33.16
2023-04-30T11:32:21.340Z,33.90
2023-04-30T11:34:48.662Z,31.71
2023-04-30T11:37:23.554Z,33.28
2023-04-30T11:39:50.152Z,33.15
2023-04-30T11:42:18.052Z,32.46
2023-04-30T11:44:45.353Z,32.57
2023-04-30T11:47:17.394Z,33.18
2023-04-30T11:49:46.981Z,33.39
2023-04-30T11:52:13.628Z,31.54
2023-04-30T11:54:42.596Z,31.62
2023-04-30T11:57:11.524Z,30.79
2023-04-30T11:59:42.276Z,32.31
2023-04-30T12:02:10.006Z,31.51
2023-04-30T12:04:38.562Z,31.71
2023-04-30T12:07:07.685Z,31.53
2023-04-30T12:09:56.378Z,32.02
2023-04-30T12:12:30.033Z,32.68
2023-04-30T12:15:01.491Z,32.51
2023-04-30T12:17:33.903Z,29.77
2023-04-30T12:20:03.160Z,30.28
2023-04-30T12:22:29.752Z,28.55
2023-04-30T12:24:56.963Z,29.11
2023-04-30T12:27:23.795Z,28.63
2023-04-30T12:29:51.147Z,28.74
2023-04-30T12:32:19.405Z,28.53
2023-04-30T12:34:46.756Z,29.31
2023-04-30T12:37:16.648Z,27.88
2023-04-30T12:39:43.435Z,27.51
2023-04-30T12:42:10.348Z,25.83
2023-04-30T12:44:44.600Z,26.72
2023-04-30T12:47:11.289Z,25.48
2023-04-30T12:49:37.902Z,24.88
2023-04-30T12:52:09.580Z,24.94
2023-04-30T12:54:36.884Z,25.58
2023-04-30T12:57:07.490Z,27.42
2023-04-30T12:59:35.027Z,26.89
2023-04-30T13:02:08.712Z,27.04
2023-04-30T13:04:36.186Z,26.88
2023-04-30T13:07:05.856Z,24.69
2023-04-30T13:09:36.022Z,23.00
2023-04-30T13:12:03.302Z,21.42
2023-04-30T13:14:31.074Z,23.43
2023-04-30T13:17:05.073Z,25.72
2023-04-30T13:19:35.324Z,25.73
2023-04-30T13:22:02.270Z,25.34
2023-04-30T13:24:31.379Z,22.50
2023-04-30T13:27:00.640Z,22.40
2023-04-30T13:29:27.603Z,20.51
2023-04-30T13:31:56.687Z,20.21
2023-04-30T13:34:23.556Z,20.93
2023-04-30T13:36:50.323Z,20.45
2023-04-30T13:39:17.333Z,20.79
2023-04-30T13:41:48.024Z,22.09
2023-04-30T13:44:14.667Z,23.23
2023-04-30T13:46:41.726Z,24.78
2023-04-30T13:49:13.257Z,25.88
2023-04-30T13:51:40.172Z,26.72
2023-04-30T13:54:09.257Z,27.06
2023-04-30T13:56:35.890Z,27.69
2023-04-30T13:59:04.912Z,27.29
2023-04-30T14:01:33.052Z,25.40
2023-04-30T14:03:59.863Z,24.37
2023-04-30T14:06:26.512Z,23.83
2023-04-30T14:08:53.563Z,22.65
2023-04-30T14:11:20.930Z,20.19
2023-04-30T14:13:50.106Z,20.23
2023-04-30T14:16:17.206Z,18.97
2023-04-30T14:18:44.289Z,20.68
2023-04-30T14:21:13.972Z,21.32
2023-04-30T14:23:41.296Z,21.63
2023-04-30T14:26:07.873Z,21.73
2023-04-30T14:28:34.821Z,20.11
2023-04-30T14:31:06.430Z,20.36
2023-04-30T14:33:36.071Z,20.02
2023-04-30T14:36:02.977Z,21.60
2023-04-30T14:38:29.609Z,23.04
2023-04-30T14:40:59.412Z,25.05
2023-04-30T14:43:31.110Z,26.87
2023-04-30T14:46:00.120Z,28.51
2023-04-30T14:48:27.045Z,29.75
2023-04-30T14:50:56.466Z,29.59
2023-04-30T14:53:25.272Z,29.38
2023-04-30T14:55:54.223Z,29.77
2023-04-30T14:58:21.167Z,30.27
2023-04-30T15:00:51.174Z,30.90
2023-04-30T15:03:17.859Z,31.99
2023-04-30T15:05:44.640Z,31.85
2023-04-30T15:08:11.707Z,32.25
2023-04-30T15:10:38.312Z,32.98
2023-04-30T15:13:07.877Z,33.08
2023-04-30T15:15:40.557Z,33.73
2023-04-30T15:18:07.378Z,34.36
2023-04-30T15:20:34.133Z,34.34
2023-04-30T15:23:03.943Z,34.49
2023-04-30T15:25:31.248Z,35.38
2023-04-30T15:27:58.404Z,35.87
2023-04-30T15:30:25.017Z,36.05
2023-04-30T15:32:51.612Z,37.28
2023-04-30T15:35:18.295Z,36.79
2023-04-30T15:37:47.187Z,37.26
2023-04-30T15:40:15.593Z,38.08
2023-04-30T15:42:42.716Z,38.58
2023-04-30T15:45:14.309Z,39.01
2023-04-30T15:47:41.276Z,39.10
2023-04-30T15:50:08.278Z,39.02
2023-04-30T15:52:39.920Z,39.79
2023-04-30T15:55:07.848Z,39.10
2023-04-30T15:57:34.432Z,39.49
2023-04-30T16:00:01.272Z,40.26
2023-04-30T16:02:40.852Z,41.22
2023-04-30T16:05:07.762Z,42.16
2023-04-30T16:07:34.472Z,43.74
2023-04-30T16:10:01.236Z,44.98
2023-04-30T16:12:28.040Z,44.84
2023-04-30T16:14:57.106Z,44.96
2023-04-30T16:17:29.193Z,46.19
2023-04-30T16:19:58.350Z,47.56
2023-04-30T16:22:25.250Z,46.99
2023-04-30T16:24:51.888Z,47.15
2023-04-30T16:27:18.685Z,47.40
2023-04-30T16:29:48.171Z,47.45
2023-04-30T16:32:14.871Z,46.81
2023-04-30T16:34:41.940Z,47.63
2023-04-30T16:37:09.132Z,47.78
2023-04-30T16:39:35.724Z,49.54
2023-04-30T16:42:04.705Z,49.34
2023-04-30T16:44:31.315Z,49.62
2023-04-30T16:47:02.782Z,48.85
2023-04-30T16:49:29.364Z,50.02
2023-04-30T16:51:56.008Z,51.65
2023-04-30T16:54:22.978Z,51.70
2023-04-30T16:56:49.566Z,54.80
2023-04-30T16:59:16.117Z,56.82
2023-04-30T17:01:42.892Z,60.10
2023-04-30T17:04:12.601Z,60.92
2023-04-30T17:06:42.816Z,62.12
2023-04-30T17:09:12.358Z,62.32
2023-04-30T17:11:38.976Z,62.45
2023-04-30T17:14:05.641Z,61.03
2023-04-30T17:16:37.417Z,59.40
2023-04-30T17:19:04.149Z,59.26
2023-04-30T17:21:33.198Z,58.79
2023-04-30T17:24:01.949Z,60.00
2023-04-30T17:26:28.556Z,59.96
2023-04-30T17:28:55.080Z,60.87
2023-04-30T17:31:21.666Z,60.21
2023-04-30T17:33:48.601Z,60.94
2023-04-30T17:36:18.030Z,60.33
2023-04-30T17:38:44.645Z,60.72
2023-04-30T17:41:13.559Z,61.23
2023-04-30T17:43:40.304Z,60.58
2023-04-30T17:46:09.828Z,59.91
2023-04-30T17:48:38.827Z,60.11
2023-04-30T17:51:08.016Z,59.91
2023-04-30T17:53:34.594Z,59.85
2023-04-30T17:56:01.256Z,59.98
2023-04-30T17:58:28.210Z,59.96
2023-04-30T18:00:58.956Z,59.23
2023-04-30T18:03:28.782Z,59.23
2023-04-30T18:05:55.912Z,58.91
2023-04-30T18:08:22.542Z,59.37
2023-04-30T18:10:49.634Z,57.83
2023-04-30T18:13:21.519Z,58.34
2023-04-30T18:15:48.243Z,58.63
2023-04-30T18:18:15.857Z,58.65
2023-04-30T18:20:44.877Z,58.44
2023-04-30T18:23:13.411Z,59.05
2023-04-30T18:25:43.644Z,59.79
2023-04-30T18:28:10.314Z,59.75
2023-04-30T18:30:37.030Z,59.91
2023-04-30T18:33:04.560Z,60.41
2023-04-30T18:35:34.204Z,60.01
2023-04-30T18:38:01.778Z,60.59
2023-04-30T18:40:28.476Z,60.92
2023-04-30T18:42:57.513Z,60.21
2023-04-30T18:45:24.217Z,60.50
2023-04-30T18:47:51.063Z,60.08
2023-04-30T18:50:20.676Z,60.50
2023-04-30T18:52:47.331Z,60.41
2023-04-30T18:55:18.733Z,60.43
2023-04-30T18:57:45.448Z,60.57
2023-04-30T19:00:14.131Z,59.83
2023-04-30T19:02:43.334Z,60.44
2023-04-30T19:05:15.724Z,60.46
2023-04-30T19:07:42.368Z,61.08
2023-04-30T19:10:09.094Z,60.41
2023-04-30T19:12:35.828Z,61.73
2023-04-30T19:15:02.583Z,61.60
2023-04-30T19:17:29.257Z,61.29
2023-04-30T19:20:00.148Z,60.83
2023-04-30T19:22:26.847Z,61.65
2023-04-30T19:24:53.417Z,61.33
2023-04-30T19:27:20.215Z,61.43
2023-04-30T19:29:46.815Z,61.93
2023-04-30T19:32:15.924Z,62.08
2023-04-30T19:34:44.899Z,62.04
2023-04-30T19:37:11.429Z,61.97
2023-04-30T19:39:40.362Z,62.02
2023-04-30T19:42:09.822Z,61.97
2023-04-30T19:44:36.607Z,61.45
2023-04-30T19:47:04.199Z,61.93
2023-04-30T19:49:31.179Z,62.72
2023-04-30T19:51:58.330Z,62.64
2023-04-30T19:54:25.231Z,62.83
2023-04-30T19:56:52.948Z,62.83
2023-04-30T19:59:22.114Z,62.58
2023-04-30T20:01:48.949Z,62.17
2023-04-30T20:04:17.884Z,62.08
2023-04-30T20:06:44.976Z,62.26
2023-04-30T20:09:11.836Z,63.01
2023-04-30T20:11:38.627Z,62.96
2023-04-30T20:14:05.560Z,62.94
2023-04-30T20:16:35.061Z,63.18
2023-04-30T20:19:01.782Z,63.45
2023-04-30T20:21:31.916Z,63.25
2023-04-30T20:24:00.256Z,63.58
2023-04-30T20:26:29.294Z,63.38
2023-04-30T20:28:56.426Z,63.08
2023-04-30T20:31:23.003Z,62.54
2023-04-30T20:33:52.307Z,63.11
2023-04-30T20:36:21.553Z,63.13
2023-04-30T20:38:48.684Z,63.13
2023-04-30T20:41:15.341Z,63.21
2023-04-30T20:43:42.020Z,63.18
2023-04-30T20:46:08.734Z,64.05
2023-04-30T20:48:35.997Z,64.34
2023-04-30T20:51:02.518Z,64.07
2023-04-30T20:53:29.371Z,64.22
2023-04-30T20:56:00.132Z,64.38
2023-04-30T20:58:29.886Z,64.23
2023-04-30T21:01:04.052Z,64.33
2023-04-30T21:03:33.264Z,64.57
2023-04-30T21:06:05.270Z,64.90
2023-04-30T21:08:31.941Z,64.90
2023-04-30T21:11:04.488Z,65.24
2023-04-30T21:13:33.613Z,65.16
2023-04-30T21:16:00.187Z,65.33
2023-04-30T21:18:27.707Z,65.79
2023-04-30T21:20:56.367Z,65.82
2023-04-30T21:23:23.085Z,65.91
2023-04-30T21:25:49.724Z,66.22
2023-04-30T21:28:18.654Z,66.30
2023-04-30T21:30:45.266Z,66.74
2023-04-30T21:33:11.904Z,66.07
2023-04-30T21:35:40.736Z,67.11
2023-04-30T21:38:12.632Z,67.66
2023-04-30T21:40:42.587Z,67.13
2023-04-30T21:43:11.612Z,66.96
2023-04-30T21:45:38.160Z,67.28
2023-04-30T21:48:05.523Z,65.91
2023-04-30T21:50:32.800Z,65.75
2023-04-30T21:52:59.411Z,65.64
2023-04-30T21:55:26.823Z,65.19
2023-04-30T21:57:55.936Z,65.29
2023-04-30T22:00:22.639Z,66.46
2023-04-30T22:02:51.654Z,66.34
2023-04-30T22:05:19.657Z,66.24
2023-04-30T22:07:48.682Z,66.40
2023-04-30T22:10:15.653Z,66.62
2023-04-30T22:12:43.903Z,66.39
2023-04-30T22:15:13.252Z,65.31
2023-04-30T22:17:42.451Z,65.61
2023-04-30T22:20:10.086Z,64.72
2023-04-30T22:22:37.057Z,64.44
2023-04-30T22:25:04.592Z,64.76
2023-04-30T22:27:34.252Z,63.36
2023-04-30T22:30:00.915Z,62.53
2023-04-30T22:32:27.803Z,63.48
2023-04-30T22:34:56.851Z,62.05
2023-04-30T22:37:26.411Z,63.20
2023-04-30T22:39:53.176Z,63.53
2023-04-30T22:42:19.836Z,64.24
2023-04-30T22:44:48.894Z,64.23
2023-04-30T22:47:15.751Z,63.82
2023-04-30T22:49:44.810Z,63.55
2023-04-30T22:52:11.706Z,64.30
2023-04-30T22:54:38.273Z,63.10
2023-04-30T22:57:09.754Z,64.03
2023-04-30T22:59:39.462Z,64.62
2023-04-30T23:02:06.111Z,65.03
2023-04-30T23:04:36.707Z,63.46
2023-04-30T23:07:03.466Z,64.03
2023-04-30T23:09:32.957Z,63.53
2023-04-30T23:12:05.690Z,63.87
2023-04-30T23:14:32.290Z,64.16
2023-04-30T23:16:58.976Z,63.67
2023-04-30T23:19:27.715Z,62.84
2023-04-30T23:21:54.341Z,63.18
2023-04-30T23:24:23.213Z,63.10
2023-04-30T23:26:50.058Z,61.34
2023-04-30T23:29:17.148Z,60.03
2023-04-30T23:31:46.343Z,61.06
2023-04-30T23:34:12.958Z,60.94
2023-04-30T23:36:40.150Z,59.27
2023-04-30T23:39:06.732Z,60.01
2023-04-30T23:41:36.233Z,60.79
2023-04-30T23:44:02.779Z,59.09
2023-04-30T23:46:29.539Z,59.43
2023-04-30T23:48:56.298Z,59.23
2023-04-30T23:51:22.930Z,60.48
2023-04-30T23:53:49.819Z,61.48
2023-04-30T23:56:17.215Z,61.38
2023-04-30T23:58:46.374Z,61.53
